.
WxDataArchive / Data Records for 2013-01-20
2013-01-19 January 2013 2013-01-21

Data Records for Sunday, 20 January 2013

Time	Temp	Chill	HIndex	Humid	Dewpt	 Wind 	HiWind	WindDir	Rain 	Barom 
-----	----	-----	------	-----	-----	------	------	-------	-----	----- 
00:00	43.6	40.7	43.6	65	32.6	5	14	248	0.00	29.750 
00:05	43.5	40.6	43.5	65	32.5	5	14	248	0.00	29.750 
00:10	43.2	40.2	43.2	65	32.2	5	11	270	0.00	29.750 
00:15	42.9	39.2	42.9	65	32.0	6	12	270	0.00	29.755 
00:20	42.8	39.1	42.8	65	31.9	6	16	270	0.00	29.755 
00:25	42.6	40.3	42.6	65	31.7	4	12	248	0.00	29.755 
00:30	42.3	39.2	42.3	65	31.4	5	12	248	0.00	29.755 
00:35	42.2	39.9	42.2	65	31.3	4	10	248	0.00	29.755 
00:40	41.9	38.0	41.9	65	31.0	6	12	270	0.00	29.755 
00:45	41.8	37.9	41.8	64	30.5	6	11	270	0.00	29.759 
00:50	41.6	38.4	41.6	64	30.3	5	10	270	0.00	29.759 
00:55	41.3	37.3	41.3	63	29.7	6	12	270	0.00	29.759 
01:00	41.2	37.9	41.2	62	29.2	5	12	270	0.00	29.764 
01:05	40.9	37.5	40.9	62	28.9	5	15	270	0.00	29.764 
01:10	40.8	36.7	40.8	58	27.2	6	15	248	0.00	29.764 
01:15	40.6	37.2	40.6	57	26.6	5	13	270	0.00	29.764 
01:20	40.5	35.7	40.5	54	25.2	7	17	270	0.00	29.764 
01:25	40.3	36.8	40.3	53	24.5	5	12	270	0.00	29.764 
01:30	40.1	35.3	40.1	51	23.4	7	15	270	0.00	29.769 
01:35	39.9	36.4	39.9	51	23.3	5	10	270	0.00	29.769 
01:40	39.6	36.0	39.6	50	22.5	5	13	270	0.00	29.769 
01:45	39.3	34.3	39.3	48	21.3	7	14	270	0.00	29.780 
01:50	39.2	34.8	39.2	47	20.7	6	12	270	0.00	29.780 
01:55	39.1	34.7	39.1	47	20.6	6	13	270	0.00	29.780 
02:00	38.6	34.1	38.6	45	19.1	6	16	248	0.00	29.792 
02:05	38.3	33.7	38.3	42	17.2	6	11	270	0.00	29.792 
02:10	38.2	34.4	38.2	42	17.2	5	10	270	0.00	29.792 
02:15	37.8	33.9	37.8	41	16.2	5	10	270	0.00	29.804 
02:20	37.6	32.9	37.6	41	16.1	6	13	270	0.00	29.804 
02:25	37.3	32.5	37.3	42	16.3	6	16	270	0.00	29.804 
02:30	37.2	32.4	37.2	41	15.7	6	12	270	0.00	29.821 
02:35	36.9	30.8	36.9	38	13.7	8	13	270	0.00	29.821 
02:40	36.6	31.0	36.6	37	12.8	7	13	270	0.00	29.821 
02:45	36.2	30.6	36.2	39	13.7	7	16	270	0.00	29.841 
02:50	35.9	30.2	35.9	40	14.0	7	12	270	0.00	29.841 
02:55	35.5	29.7	35.5	41	14.2	7	12	270	0.00	29.841 
03:00	35.2	30.8	35.2	42	14.4	5	10	270	0.00	29.856 
03:05	34.7	30.2	34.7	44	15.0	5	13	270	0.00	29.856 
03:10	34.4	29.1	34.4	45	15.3	6	14	270	0.00	29.856 
03:15	34.0	30.4	34.0	47	15.9	4	12	270	0.00	29.867 
03:20	33.4	27.2	33.4	43	13.3	7	18	270	0.00	29.867 
03:25	32.7	26.3	32.7	42	12.2	7	18	270	0.00	29.867 
03:30	31.9	26.1	31.9	40	10.4	6	10	270	0.00	29.896 
03:35	31.5	26.5	31.5	40	10.0	5	15	270	0.00	29.896 
03:40	30.9	25.8	30.9	41	10.0	5	19	270	0.00	29.896 
03:45	30.4	25.2	30.4	42	10.1	5	12	270	0.00	29.914 
03:50	30.0	25.8	30.0	42	9.7	4	10	270	0.00	29.914 
03:55	29.5	24.1	29.5	42	9.3	5	13	270	0.00	29.914 
04:00	29.1	23.7	29.1	43	9.4	5	10	270	0.00	29.927 
04:05	28.8	23.3	28.8	46	10.7	5	9	270	0.00	29.927 
04:10	28.5	22.1	28.5	47	10.9	6	12	270	0.00	29.927 
04:15	28.2	22.6	28.2	48	11.1	5	10	270	0.00	29.936 
04:20	27.9	22.3	27.9	49	11.2	5	11	270	0.00	29.936 
04:25	27.6	21.9	27.6	50	11.4	5	10	270	0.00	29.936 
04:30	27.5	21.8	27.5	50	11.3	5	10	270	0.00	29.948 
04:35	27.3	22.6	27.3	51	11.6	4	6	270	0.00	29.948 
04:40	27.0	21.2	27.0	52	11.7	5	16	270	0.00	29.948 
04:45	26.9	20.2	26.9	52	11.7	6	16	270	0.00	29.957 
04:50	26.9	21.1	26.9	52	11.7	5	9	270	0.00	29.957 
04:55	26.9	22.2	26.9	53	12.1	4	11	270	0.00	29.957 
05:00	26.7	22.0	26.7	53	11.9	4	8	270	0.00	29.968 
05:05	26.6	21.8	26.6	54	12.2	4	13	270	0.00	29.968 
05:10	26.6	21.8	26.6	54	12.2	4	11	270	0.00	29.968 
05:15	26.4	21.6	26.4	54	12.0	4	11	270	0.00	29.986 
05:20	26.4	21.6	26.4	53	11.6	4	9	315	0.00	29.986 
05:25	26.1	20.1	26.1	53	11.3	5	11	270	0.00	29.986 
05:30	26.0	26.0	26.0	54	11.7	3	7	292	0.00	30.000 
05:35	25.8	19.8	25.8	54	11.5	5	12	270	0.00	30.000 
05:40	25.8	19.8	25.8	54	11.5	5	10	270	0.00	30.000 
05:45	25.7	20.8	25.7	52	10.5	4	9	270	0.00	30.010 
05:50	25.6	25.6	25.6	56	12.1	3	7	292	0.00	30.010 
05:55	25.6	20.7	25.6	56	12.1	4	10	292	0.00	30.010 
06:00	25.4	25.4	25.4	57	12.3	3	7	292	0.00	30.019 
06:05	25.3	20.3	25.3	58	12.6	4	9	315	0.00	30.019 
06:10	25.1	25.1	25.1	59	12.8	2	7	338	0.00	30.019 
06:15	25.0	20.0	25.0	60	13.1	4	10	315	0.00	30.035 
06:20	24.7	19.6	24.7	61	13.2	4	10	315	0.00	30.035 
06:25	24.5	24.5	24.5	63	13.7	3	9	338	0.00	30.035 
06:30	24.2	24.2	24.2	65	14.2	3	8	292	0.00	30.050 
06:35	24.2	24.2	24.2	65	14.2	3	8	248	0.00	30.050 
06:40	24.1	19.0	24.1	61	12.6	4	7	270	0.00	30.050 
06:45	23.9	18.7	23.9	58	11.3	4	7	270	0.00	30.055 
06:50	23.6	17.2	23.6	57	10.6	5	14	270	0.00	30.055 
06:55	23.6	23.6	23.6	56	10.2	3	7	270	0.00	30.055 
07:00	23.6	23.6	23.6	56	10.2	3	9	270	0.00	30.067 
07:05	23.5	18.3	23.5	55	9.7	4	10	270	0.00	30.067 
07:10	23.2	17.9	23.2	56	9.9	4	14	315	0.00	30.067 
07:15	23.0	17.7	23.0	56	9.7	4	9	270	0.00	30.083 
07:20	23.0	23.0	23.0	56	9.7	3	10	270	0.00	30.083 
07:25	22.9	17.6	22.9	56	9.6	4	11	270	0.00	30.083 
07:30	22.9	22.9	22.9	57	10.0	3	9	270	0.00	30.096 
07:35	22.7	22.7	22.7	57	9.8	2	5	292	0.00	30.096 
07:40	22.7	22.7	22.7	57	9.8	3	7	270	0.00	30.096 
07:45	22.5	22.5	22.5	57	9.6	3	7	292	0.00	30.103 
07:50	22.5	17.1	22.5	57	9.6	4	11	292	0.00	30.103 
07:55	22.5	22.5	22.5	58	10.0	3	7	270	0.00	30.103 
08:00	22.4	22.4	22.4	60	10.6	3	6	248	0.00	30.114 
08:05	22.2	22.2	22.2	62	11.2	3	6	270	0.00	30.114 
08:10	22.1	22.1	22.1	64	11.8	2	7	338	0.00	30.114 
08:15	21.9	21.9	21.9	66	12.3	2	7	248	0.00	30.127 
08:20	21.8	21.8	21.8	68	12.9	2	5	315	0.00	30.127 
08:25	21.4	21.4	21.4	67	12.2	3	7	270	0.00	30.127 
08:30	21.1	21.1	21.1	65	11.2	3	10	292	0.00	30.137 
08:35	21.0	21.0	21.0	64	10.8	2	6	270	0.00	30.137 
08:40	20.8	20.8	20.8	62	9.9	3	7	338	0.00	30.137 
08:45	20.6	20.6	20.6	62	9.7	3	12	270	0.00	30.150 
08:50	20.6	20.6	20.6	62	9.7	3	9	270	0.00	30.150 
08:55	20.6	20.6	20.6	62	9.7	3	6	270	0.00	30.150 
09:00	20.5	20.5	20.5	62	9.6	3	9	338	0.00	30.165 
09:05	20.5	14.8	20.5	62	9.6	4	7	292	0.00	30.165 
09:10	20.3	20.3	20.3	63	9.7	3	7	315	0.00	30.165 
09:15	20.3	20.3	20.3	63	9.7	3	10	292	0.00	30.177 
09:20	20.3	20.3	20.3	62	9.4	2	6	315	0.00	30.177 
09:25	20.2	20.2	20.2	62	9.3	3	9	292	0.00	30.177 
09:30	20.3	20.3	20.3	61	9.0	3	6	338	0.00	30.189 
09:35	20.2	20.2	20.2	59	8.2	3	7	292	0.00	30.189 
09:40	20.0	20.0	20.0	58	7.6	2	7	292	0.00	30.189 
09:45	19.9	14.1	19.9	58	7.5	4	15	315	0.00	30.205 
09:50	19.9	19.9	19.9	58	7.5	3	7	338	0.00	30.205 
09:55	20.0	20.0	20.0	58	7.6	3	9	270	0.00	30.205 
10:00	19.9	19.9	19.9	57	7.2	3	6	292	0.00	30.213 
10:05	19.9	19.9	19.9	57	7.2	3	7	338	0.00	30.213 
10:10	19.7	19.7	19.7	58	7.3	3	6	292	0.00	30.213 
10:15	19.9	19.9	19.9	58	7.5	2	7	270	0.00	30.229 
10:20	19.9	19.9	19.9	58	7.5	3	7	292	0.00	30.229 
10:25	19.9	19.9	19.9	58	7.5	3	5	292	0.00	30.229 
10:30	19.9	19.9	19.9	58	7.5	2	7	315	0.00	30.232 
10:35	20.0	20.0	20.0	57	7.2	3	7	270	0.00	30.232 
10:40	19.9	19.9	19.9	57	7.2	2	6	338	0.00	30.232 
10:45	20.0	20.0	20.0	57	7.2	2	5	270	0.00	30.239 
10:50	19.7	19.7	19.7	57	7.0	3	12	270	0.00	30.239 
10:55	19.5	19.5	19.5	57	6.8	3	6	270	0.00	30.239 
11:00	20.0	20.0	20.0	56	6.9	2	9	292	0.00	30.245 
11:05	20.2	14.4	20.2	56	7.0	4	11	315	0.00	30.245 
11:10	20.0	20.0	20.0	56	6.9	3	9	315	0.00	30.245 
11:15	20.2	20.2	20.2	57	7.4	2	5	315	0.00	30.244 
11:20	20.2	20.2	20.2	55	6.7	2	6	292	0.00	30.244 
11:25	20.0	20.0	20.0	56	6.9	2	5	270	0.00	30.244 
11:30	20.3	20.3	20.3	57	7.5	1	4	270	0.00	30.237 
11:35	21.1	21.1	21.1	57	8.3	2	5	292	0.00	30.237 
11:40	21.3	21.3	21.3	57	8.5	2	6	315	0.00	30.237 
11:45	21.8	21.8	21.8	55	8.1	2	5	270	0.00	30.232 
11:50	21.9	21.9	21.9	55	8.2	2	6	270	0.00	30.232 
11:55	21.4	21.4	21.4	56	8.2	2	5	270	0.00	30.232 
12:00	21.6	21.6	21.6	56	8.4	2	4	315	0.00	30.228 
12:05	21.6	21.6	21.6	56	8.4	1	3	292	0.00	30.228 
12:10	22.1	22.1	22.1	55	8.4	2	5	292	0.00	30.228 
12:15	22.4	22.4	22.4	54	8.3	3	5	248	0.00	30.220 
12:20	22.7	22.7	22.7	54	8.6	3	7	248	0.00	30.220 
12:25	22.7	22.7	22.7	54	8.6	3	6	315	0.00	30.220 
12:30	22.1	22.1	22.1	54	8.0	2	5	292	0.00	30.215 
12:35	21.8	21.8	21.8	55	8.1	2	4	270	0.00	30.215 
12:40	21.9	21.9	21.9	56	8.6	1	6	270	0.00	30.215 
12:45	21.6	21.6	21.6	56	8.4	2	6	315	0.00	30.215 
12:50	21.3	21.3	21.3	56	8.1	1	4	338	0.00	30.215 
12:55	21.6	21.6	21.6	58	9.1	2	5	248	0.00	30.215 
13:00	21.4	21.4	21.4	56	8.2	2	5	270	0.00	30.214 
13:05	21.4	21.4	21.4	57	8.6	2	4	248	0.00	30.214 
13:10	21.6	21.6	21.6	55	8.0	2	4	248	0.00	30.214 
13:15	21.6	21.6	21.6	56	8.4	2	4	292	0.00	30.208 
13:20	21.8	21.8	21.8	55	8.1	3	6	292	0.00	30.208 
13:25	22.1	22.1	22.1	56	8.8	2	6	270	0.00	30.208 
13:30	22.5	22.5	22.5	55	8.8	2	7	248	0.00	30.200 
13:35	22.2	22.2	22.2	55	8.5	2	4	248	0.00	30.200 
13:40	22.5	22.5	22.5	57	9.6	2	6	248	0.00	30.200 
13:45	23.2	23.2	23.2	56	9.9	2	6	248	0.00	30.195 
13:50	23.5	23.5	23.5	54	9.3	3	7	248	0.00	30.195 
13:55	23.6	23.6	23.6	53	9.0	2	5	248	0.00	30.195 
14:00	23.6	23.6	23.6	54	9.4	2	6	248	0.00	30.198 
14:05	23.5	23.5	23.5	55	9.7	2	6	270	0.00	30.198 
14:10	23.9	23.9	23.9	54	9.7	2	5	248	0.00	30.198 
14:15	23.5	23.5	23.5	53	8.9	2	5	315	0.00	30.204 
14:20	22.5	22.5	22.5	54	8.4	2	4	292	0.00	30.204 
14:25	21.9	21.9	21.9	56	8.6	2	6	338	0.00	30.204 
14:30	22.4	22.4	22.4	56	9.1	3	6	248	0.00	30.218 
14:35	23.0	23.0	23.0	54	8.9	3	7	270	0.00	30.218 
14:40	23.5	23.5	23.5	54	9.3	3	5	270	0.00	30.218 
14:45	23.3	23.3	23.3	53	8.7	3	5	270	0.00	30.214 
14:50	22.9	22.9	22.9	53	8.4	2	4	248	0.00	30.214 
14:55	22.9	22.9	22.9	54	8.8	1	4	248	0.00	30.214 
15:00	22.7	22.7	22.7	54	8.6	2	7	270	0.00	30.220 
15:05	22.9	22.9	22.9	55	9.2	2	5	248	0.00	30.220 
15:10	23.0	23.0	23.0	55	9.3	2	7	338	0.00	30.220 
15:15	22.9	22.9	22.9	55	9.2	2	7	270	0.00	30.223 
15:20	22.9	22.9	22.9	56	9.6	1	3	338	0.00	30.223 
15:25	22.7	22.7	22.7	54	8.6	2	7	292	0.00	30.223 
15:30	22.2	22.2	22.2	55	8.5	2	6	292	0.00	30.227 
15:35	21.9	21.9	21.9	56	8.6	2	5	338	0.00	30.227 
15:40	22.1	22.1	22.1	56	8.8	1	5	315	0.00	30.227 
15:45	22.4	22.4	22.4	56	9.1	2	4	315	0.00	30.229 
15:50	22.7	22.7	22.7	55	9.0	2	4	248	0.00	30.229 
15:55	22.7	22.7	22.7	53	8.2	2	7	248	0.00	30.229 
16:00	22.9	22.9	22.9	53	8.4	2	5	248	0.00	30.235 
16:05	23.0	23.0	23.0	53	8.4	2	5	248	0.00	30.235 
16:10	22.5	22.5	22.5	53	8.0	2	5	248	0.00	30.235 
16:15	22.5	22.5	22.5	53	8.0	2	4	270	0.00	30.227 
16:20	22.4	22.4	22.4	53	7.9	1	4	248	0.00	30.227 
16:25	22.2	22.2	22.2	54	8.1	1	3	248	0.00	30.227 
16:30	22.1	22.1	22.1	55	8.4	1	3	248	0.00	30.228 
16:35	22.1	22.1	22.1	55	8.4	1	4	248	0.00	30.228 
16:40	21.8	21.8	21.8	54	7.7	2	6	248	0.00	30.228 
16:45	21.8	21.8	21.8	55	8.1	1	3	248	0.00	30.228 
16:50	21.6	21.6	21.6	55	8.0	2	5	248	0.00	30.228 
16:55	21.4	21.4	21.4	55	7.8	2	5	248	0.00	30.228 
17:00	21.3	21.3	21.3	56	8.1	2	5	292	0.00	30.235 
17:05	21.3	21.3	21.3	56	8.1	1	4	270	0.00	30.235 
17:10	21.1	21.1	21.1	56	7.9	2	5	292	0.00	30.235 
17:15	20.8	20.8	20.8	56	7.6	2	6	292	0.00	30.241 
17:20	20.6	20.6	20.6	57	7.8	1	4	292	0.00	30.241 
17:25	20.6	20.6	20.6	58	8.2	0	2	315	0.00	30.241 
17:30	20.5	20.5	20.5	58	8.1	0	2	315	0.00	30.235 
17:35	20.3	20.3	20.3	58	7.9	1	3	0	0.00	30.235 
17:40	20.3	20.3	20.3	58	7.9	0	3	292	0.00	30.235 
17:45	20.2	20.2	20.2	59	8.2	0	2	292	0.00	30.241 
17:50	20.0	20.0	20.0	59	8.0	0	3	292	0.00	30.241 
17:55	19.9	19.9	19.9	60	8.3	0	1	292	0.00	30.241 
18:00	19.9	19.9	19.9	60	8.3	0	1	292	0.00	30.242 
18:05	19.9	19.9	19.9	60	8.3	0	1	292	0.00	30.242 
18:10	19.7	19.7	19.7	61	8.5	0	1	292	0.00	30.242 
18:15	19.7	19.7	19.7	61	8.5	0	2	292	0.00	30.245 
18:20	19.7	19.7	19.7	61	8.5	0	2	292	0.00	30.245 
18:25	19.7	19.7	19.7	61	8.5	0	2	292	0.00	30.245 
18:30	19.7	19.7	19.7	61	8.5	0	3	292	0.00	30.248 
18:35	19.5	19.5	19.5	61	8.3	0	2	292	0.00	30.248 
18:40	19.5	19.5	19.5	61	8.3	0	1	292	0.00	30.248 
18:45	19.5	19.5	19.5	62	8.6	0	2	292	0.00	30.249 
18:50	19.5	19.5	19.5	62	8.6	0	3	292	0.00	30.249 
18:55	19.5	19.5	19.5	62	8.6	0	3	292	0.00	30.249 
19:00	19.4	19.4	19.4	62	8.5	0	1	292	0.00	30.251 
19:05	19.4	19.4	19.4	62	8.5	0	2	292	0.00	30.251 
19:10	19.2	19.2	19.2	63	8.7	0	1	292	0.00	30.251 
19:15	19.2	19.2	19.2	63	8.7	0	1	292	0.00	30.252 
19:20	19.2	19.2	19.2	63	8.7	0	2	292	0.00	30.252 
19:25	19.1	19.1	19.1	63	8.6	0	3	292	0.00	30.252 
19:30	19.1	19.1	19.1	63	8.6	0	2	292	0.00	30.252 
19:35	19.1	19.1	19.1	63	8.6	1	3	292	0.00	30.252 
19:40	19.1	19.1	19.1	63	8.6	0	1	292	0.00	30.252 
19:45	18.9	18.9	18.9	63	8.4	0	2	292	0.00	30.247 
19:50	18.9	18.9	18.9	64	8.8	0	1	292	0.00	30.247 
19:55	18.8	18.8	18.8	64	8.7	0	1	292	0.00	30.247 
20:00	18.8	18.8	18.8	64	8.7	0	2	292	0.00	30.249 
20:05	18.6	18.6	18.6	64	8.5	0	1	292	0.00	30.249 
20:10	18.6	18.6	18.6	64	8.5	0	2	292	0.00	30.249 
20:15	18.6	18.6	18.6	65	8.8	0	2	292	0.00	30.249 
20:20	18.4	18.4	18.4	65	8.6	0	1	292	0.00	30.249 
20:25	18.4	18.4	18.4	65	8.6	0	1	292	0.00	30.249 
20:30	18.4	18.4	18.4	65	8.6	0	1	292	0.00	30.249 
20:35	18.3	18.3	18.3	65	8.5	0	2	292	0.00	30.249 
20:40	18.3	18.3	18.3	65	8.5	0	1	292	0.00	30.249 
20:45	18.3	18.3	18.3	65	8.5	0	1	292	0.00	30.243 
20:50	18.1	18.1	18.1	65	8.3	0	1	292	0.00	30.243 
20:55	18.1	18.1	18.1	65	8.3	0	2	292	0.00	30.243 
21:00	18.1	18.1	18.1	65	8.3	0	3	292	0.00	30.240 
21:05	18.0	18.0	18.0	65	8.3	0	2	292	0.00	30.240 
21:10	18.0	18.0	18.0	65	8.3	0	1	292	0.00	30.240 
21:15	17.8	17.8	17.8	65	8.1	0	1	292	0.00	30.237 
21:20	17.8	17.8	17.8	65	8.1	0	0	---	0.00	30.237 
21:25	17.7	17.7	17.7	65	8.0	0	1	292	0.00	30.237 
21:30	17.5	17.5	17.5	65	7.8	0	1	292	0.00	30.239 
21:35	17.5	17.5	17.5	65	7.8	0	1	292	0.00	30.239 
21:40	17.3	17.3	17.3	65	7.6	0	1	292	0.00	30.239 
21:45	17.3	17.3	17.3	64	7.2	0	1	292	0.00	30.239 
21:50	17.3	17.3	17.3	64	7.2	0	1	292	0.00	30.239 
21:55	17.3	17.3	17.3	64	7.2	0	1	292	0.00	30.239 
22:00	17.3	17.3	17.3	63	6.9	0	1	292	0.00	30.236 
22:05	17.2	17.2	17.2	63	6.8	0	1	292	0.00	30.236 
22:10	17.2	17.2	17.2	63	6.8	0	1	292	0.00	30.236 
22:15	17.2	17.2	17.2	63	6.8	0	1	292	0.00	30.225 
22:20	17.2	17.2	17.2	64	7.1	0	0	---	0.00	30.225 
22:25	17.2	17.2	17.2	64	7.1	0	0	---	0.00	30.225 
22:30	17.2	17.2	17.2	64	7.1	0	1	292	0.00	30.224 
22:35	17.3	17.3	17.3	64	7.2	0	1	292	0.00	30.224 
22:40	17.3	17.3	17.3	64	7.2	0	0	---	0.00	30.224 
22:45	17.5	17.5	17.5	63	7.1	0	0	---	0.00	30.220 
22:50	17.5	17.5	17.5	63	7.1	0	1	292	0.00	30.220 
22:55	17.7	17.7	17.7	63	7.3	0	0	---	0.00	30.220 
23:00	17.7	17.7	17.7	63	7.3	0	0	---	0.00	30.218 
23:05	17.8	17.8	17.8	63	7.4	0	1	292	0.00	30.218 
23:10	17.8	17.8	17.8	63	7.4	0	1	292	0.00	30.218 
23:15	17.8	17.8	17.8	63	7.4	0	2	292	0.00	30.214 
23:20	18.0	18.0	18.0	63	7.6	0	1	292	0.00	30.214 
23:25	18.0	18.0	18.0	62	7.2	0	1	292	0.00	30.214 
23:30	18.0	18.0	18.0	62	7.2	0	0	---	0.00	30.212 
23:35	18.1	18.1	18.1	62	7.3	0	1	292	0.00	30.212 
23:40	18.1	18.1	18.1	62	7.3	0	2	292	0.00	30.212 
23:45	18.1	18.1	18.1	62	7.3	0	0	---	0.00	30.210 
23:50	18.1	18.1	18.1	62	7.3	0	2	292	0.00	30.210 
23:55	18.1	18.1	18.1	62	7.3	0	2	292	0.00	30.210 

CoCoRaHS
IN-AL-39
A2 Web Hosting
Creative Commons License
GoDaddy
search engine by freefind advanced

loaded 2018-11-17 15:04:20 • last modified 2010-11-18 10:43:29
Privacy PolicyDisclaimer
• wx.awcolley.com is powered by PmWiki v.2002016 •
• all content (unless otherwise noted) © 2018 A W Colley